createdAt,value
2022-09-28T00:00:33.159Z,3.63
2022-09-28T00:05:34.999Z,3.97
2022-09-28T00:10:36.715Z,4.35
2022-09-28T00:15:38.266Z,4.30
2022-09-28T00:20:39.814Z,4.53
2022-09-28T00:25:41.351Z,4.32
2022-09-28T00:30:42.919Z,4.95
2022-09-28T00:35:44.596Z,4.10
2022-09-28T00:40:46.194Z,4.10
2022-09-28T00:46:06.724Z,4.70
2022-09-28T00:51:12.331Z,4.53
2022-09-28T00:56:19.221Z,4.43
2022-09-28T01:01:21.695Z,4.30
2022-09-28T01:06:28.178Z,4.80
2022-09-28T01:11:32.868Z,4.60
2022-09-28T01:16:58.486Z,4.47
2022-09-28T01:22:22.982Z,4.88
2022-09-28T01:27:45.173Z,4.85
2022-09-28T01:32:51.537Z,5.28
2022-09-28T01:38:01.734Z,4.90
2022-09-28T01:43:26.642Z,4.50
2022-09-28T01:48:37.938Z,5.00
2022-09-28T01:53:44.825Z,5.70
2022-09-28T01:58:51.538Z,4.93
2022-09-28T02:04:03.261Z,6.05
2022-09-28T02:09:11.617Z,7.28
2022-09-28T02:14:17.392Z,6.17
2022-09-28T02:19:27.815Z,6.10
2022-09-28T02:25:12.985Z,5.25
2022-09-28T02:30:14.710Z,5.65
2022-09-28T02:35:19.084Z,31.25
2022-09-28T02:40:24.090Z,15.55
2022-09-28T02:45:34.461Z,13.30
2022-09-28T02:51:06.152Z,11.55
2022-09-28T02:56:26.695Z,8.60
2022-09-28T03:02:01.546Z,8.00
2022-09-28T03:07:23.521Z,6.20
2022-09-28T03:12:29.323Z,5.72
2022-09-28T03:17:30.884Z,5.43
2022-09-28T03:22:32.382Z,5.32
2022-09-28T03:27:34.146Z,5.72
2022-09-28T03:32:35.867Z,5.28
2022-09-28T03:37:38.140Z,5.95
2022-09-28T03:42:40.218Z,5.22
2022-09-28T03:47:46.167Z,5.30
2022-09-28T03:52:47.690Z,5.28
2022-09-28T03:57:56.143Z,5.65
2022-09-28T04:02:57.682Z,5.70
2022-09-28T04:07:59.331Z,5.88
2022-09-28T04:13:00.905Z,5.47
2022-09-28T04:18:02.469Z,6.07
2022-09-28T04:23:04.013Z,5.93
2022-09-28T04:28:24.037Z,6.15
2022-09-28T04:33:25.650Z,5.97
2022-09-28T04:38:48.731Z,6.13
2022-09-28T04:43:48.770Z,6.35
2022-09-28T04:48:51.527Z,6.30
2022-09-28T04:53:53.092Z,6.50
2022-09-28T04:58:54.644Z,6.80
2022-09-28T05:03:56.647Z,6.38
2022-09-28T05:08:58.259Z,5.90
2022-09-28T05:13:59.994Z,6.00
2022-09-28T05:19:01.605Z,6.22
2022-09-28T05:24:07.459Z,6.20
2022-09-28T05:29:09.112Z,6.40
2022-09-28T05:34:10.751Z,6.15
2022-09-28T05:39:12.397Z,6.40
2022-09-28T05:44:14.084Z,6.32
2022-09-28T05:49:15.660Z,6.75
2022-09-28T05:54:17.414Z,6.80
2022-09-28T05:59:19.138Z,7.13
2022-09-28T06:04:20.960Z,6.90
2022-09-28T06:09:25.911Z,4.80
2022-09-28T06:14:27.753Z,4.95
2022-09-28T06:19:29.514Z,4.20
2022-09-28T06:24:31.249Z,4.00
2022-09-28T06:29:32.910Z,3.88
2022-09-28T06:34:35.031Z,3.53
2022-09-28T06:39:36.577Z,4.30
2022-09-28T06:44:38.122Z,3.65
2022-09-28T06:49:39.666Z,4.15
2022-09-28T06:54:41.206Z,4.15
2022-09-28T06:59:42.872Z,3.70
2022-09-28T07:04:44.428Z,3.45
2022-09-28T07:09:50.233Z,3.70
2022-09-28T07:14:57.372Z,3.25
2022-09-28T07:20:03.179Z,3.30
2022-09-28T07:25:12.805Z,3.13
2022-09-28T07:30:14.700Z,3.38
2022-09-28T07:35:16.352Z,3.05
2022-09-28T07:40:36.511Z,3.78
2022-09-28T07:45:38.584Z,2.83
2022-09-28T07:50:40.247Z,1.85
2022-09-28T07:55:41.770Z,2.60
2022-09-28T08:00:45.463Z,2.60
2022-09-28T08:05:47.549Z,2.50
2022-09-28T08:10:50.987Z,1.90
2022-09-28T08:15:53.625Z,2.00
2022-09-28T08:21:27.565Z,2.40
2022-09-28T08:26:29.264Z,2.35
2022-09-28T08:31:31.239Z,2.45
2022-09-28T08:36:33.533Z,1.80
2022-09-28T08:42:04.174Z,2.30
2022-09-28T08:47:33.368Z,2.10
2022-09-28T08:52:40.101Z,2.10
2022-09-28T08:57:57.942Z,2.10
2022-09-28T09:03:03.065Z,2.22
2022-09-28T09:08:13.601Z,1.98
2022-09-28T09:13:38.040Z,1.50
2022-09-28T09:18:56.710Z,1.40
2022-09-28T09:24:10.744Z,1.67
2022-09-28T09:29:36.487Z,1.40
2022-09-28T09:35:04.289Z,1.35
2022-09-28T09:40:20.871Z,1.30
2022-09-28T09:45:55.995Z,1.40
2022-09-28T09:51:03.437Z,1.23
2022-09-28T09:56:17.068Z,1.20
2022-09-28T10:01:22.896Z,1.20
2022-09-28T10:06:33.761Z,0.80
2022-09-28T10:11:39.708Z,0.63
2022-09-28T10:16:43.055Z,0.70
2022-09-28T10:21:46.873Z,0.70
2022-09-28T10:26:53.103Z,0.80
2022-09-28T10:31:55.641Z,0.63
2022-09-28T10:37:01.243Z,0.70
2022-09-28T10:42:08.195Z,0.70
2022-09-28T10:47:16.084Z,0.82
2022-09-28T10:52:49.866Z,0.63
2022-09-28T10:57:51.581Z,0.80
2022-09-28T11:02:53.365Z,0.73
2022-09-28T11:07:57.053Z,0.73
2022-09-28T11:12:59.828Z,0.70
2022-09-28T11:18:25.325Z,0.73
2022-09-28T11:23:30.446Z,0.90
2022-09-28T11:28:36.010Z,0.88
2022-09-28T11:33:45.128Z,0.82
2022-09-28T11:44:18.390Z,0.80
2022-09-28T11:49:20.010Z,1.10
2022-09-28T11:54:53.708Z,1.20
2022-09-28T11:59:59.999Z,1.38
2022-09-28T12:05:18.391Z,1.20
2022-09-28T12:10:48.160Z,1.30
2022-09-28T12:16:23.054Z,1.02
2022-09-28T12:21:13.997Z,1.10
2022-09-28T12:26:28.511Z,1.10
2022-09-28T12:31:46.269Z,0.80
2022-09-28T12:37:22.966Z,1.00
2022-09-28T12:42:53.425Z,1.15
2022-09-28T12:48:57.207Z,1.58
2022-09-28T12:54:20.537Z,1.80
2022-09-28T12:59:31.033Z,1.75
2022-09-28T13:05:08.209Z,1.30
2022-09-28T13:10:23.656Z,1.33
2022-09-28T13:15:52.644Z,1.20
2022-09-28T13:26:15.061Z,2.10
2022-09-28T13:31:20.606Z,1.70
2022-09-28T13:36:36.578Z,1.50
2022-09-28T13:41:40.460Z,1.45
2022-09-28T13:47:12.730Z,1.77
2022-09-28T13:52:39.944Z,2.08
2022-09-28T13:57:57.392Z,1.27
2022-09-28T14:03:25.438Z,1.70
2022-09-28T14:08:33.645Z,3.30
2022-09-28T14:13:41.239Z,2.27
2022-09-28T14:18:46.320Z,2.25
2022-09-28T14:24:06.751Z,2.13
2022-09-28T14:29:28.832Z,2.58
2022-09-28T14:34:43.794Z,2.47
2022-09-28T14:40:05.259Z,2.70
2022-09-28T14:45:07.407Z,3.85
2022-09-28T14:50:28.161Z,3.67
2022-09-28T14:55:38.902Z,3.05
2022-09-28T15:00:44.588Z,3.17
2022-09-28T15:05:47.866Z,3.33
2022-09-28T15:10:50.501Z,2.45
2022-09-28T15:15:59.631Z,2.38
2022-09-28T15:26:08.436Z,2.35
2022-09-28T15:31:18.184Z,2.08
2022-09-28T15:36:26.599Z,2.17
2022-09-28T15:41:28.838Z,1.80
2022-09-28T15:46:30.423Z,2.00
2022-09-28T15:51:47.695Z,2.00
2022-09-28T15:56:55.323Z,1.98
2022-09-28T16:02:12.195Z,2.38
2022-09-28T16:07:13.722Z,2.25
2022-09-28T16:12:15.299Z,2.92
2022-09-28T16:17:32.388Z,3.00
2022-09-28T16:22:34.029Z,3.47
2022-09-28T16:27:42.785Z,4.30
2022-09-28T16:32:57.984Z,3.50
2022-09-28T16:38:12.362Z,3.72
2022-09-28T16:43:36.363Z,5.30
2022-09-28T16:48:51.892Z,6.30
2022-09-28T16:54:12.369Z,6.50
2022-09-28T16:59:14.106Z,6.05
2022-09-28T17:04:15.744Z,6.10
2022-09-28T17:09:17.402Z,5.30
2022-09-28T17:14:18.984Z,5.15
2022-09-28T17:19:21.774Z,4.88
2022-09-28T17:24:23.394Z,5.57
2022-09-28T17:29:25.008Z,6.07
2022-09-28T17:34:26.687Z,6.65
2022-09-28T17:39:28.408Z,6.28
2022-09-28T17:44:29.968Z,6.05
2022-09-28T17:49:31.660Z,5.95
2022-09-28T17:54:33.872Z,5.35
2022-09-28T17:59:35.399Z,5.80
2022-09-28T18:04:51.362Z,7.55
2022-09-28T18:09:56.788Z,8.82
2022-09-28T18:14:58.376Z,8.13
2022-09-28T18:20:00.008Z,8.38
2022-09-28T18:25:01.892Z,7.63
2022-09-28T18:30:05.225Z,6.95
2022-09-28T18:35:08.842Z,7.45
2022-09-28T18:40:13.009Z,7.45
2022-09-28T18:45:17.818Z,6.88
2022-09-28T18:50:19.432Z,6.18
2022-09-28T18:55:21.045Z,6.03
2022-09-28T19:00:22.615Z,5.65
2022-09-28T19:05:24.232Z,5.50
2022-09-28T19:10:25.848Z,8.55
2022-09-28T19:15:27.448Z,8.07
2022-09-28T19:20:29.056Z,7.55
2022-09-28T19:25:30.585Z,7.25
2022-09-28T19:30:32.193Z,8.05
2022-09-28T19:35:33.716Z,14.07
2022-09-28T19:40:37.247Z,18.65
2022-09-28T19:45:39.792Z,33.80
2022-09-28T19:50:41.681Z,19.63
2022-09-28T19:55:43.233Z,11.68
2022-09-28T20:00:44.807Z,10.07
2022-09-28T20:05:46.921Z,8.90
2022-09-28T20:10:51.169Z,8.10
2022-09-28T20:15:52.846Z,8.10
2022-09-28T20:21:05.166Z,7.90
2022-09-28T20:26:09.334Z,8.38
2022-09-28T20:31:15.386Z,8.60
2022-09-28T20:36:22.264Z,8.48
2022-09-28T20:41:24.876Z,8.65
2022-09-28T20:46:26.854Z,7.32
2022-09-28T20:51:28.571Z,7.13
2022-09-28T20:56:38.100Z,8.70
2022-09-28T21:01:40.741Z,10.30
2022-09-28T21:06:43.083Z,12.80
2022-09-28T21:11:44.609Z,11.93
2022-09-28T21:16:46.146Z,11.45
2022-09-28T21:21:47.758Z,10.80
2022-09-28T21:26:49.301Z,9.70
2022-09-28T21:31:50.843Z,9.82
2022-09-28T21:36:52.650Z,12.25
2022-09-28T21:41:54.193Z,7.95
2022-09-28T21:46:55.777Z,8.15
2022-09-28T21:51:57.350Z,21.35
2022-09-28T21:57:00.592Z,23.05
2022-09-28T22:02:02.437Z,9.38
2022-09-28T22:07:04.018Z,9.00
2022-09-28T22:12:05.630Z,8.20
2022-09-28T22:17:07.174Z,6.53
2022-09-28T22:22:08.937Z,5.57
2022-09-28T22:27:10.557Z,5.90
2022-09-28T22:32:12.111Z,9.02
2022-09-28T22:37:13.680Z,5.82
2022-09-28T22:42:16.396Z,7.55
2022-09-28T22:47:17.932Z,5.63
2022-09-28T22:52:19.472Z,5.80
2022-09-28T22:57:21.730Z,5.80
2022-09-28T23:02:23.419Z,5.18
2022-09-28T23:07:26.257Z,4.80
2022-09-28T23:12:30.023Z,7.63
2022-09-28T23:17:31.572Z,6.40
2022-09-28T23:22:33.236Z,5.28
2022-09-28T23:27:34.799Z,8.65
2022-09-28T23:32:36.365Z,9.70
2022-09-28T23:37:38.137Z,8.68
2022-09-28T23:42:39.684Z,10.50
2022-09-28T23:47:41.255Z,6.20
2022-09-28T23:52:42.794Z,4.65
2022-09-28T23:57:44.374Z,5.07
